This is the latest recevied weather packets stored in our database for station/object KGRR-WX. If no packets are shown the sender has not sent any weather packets the latest 10 day(s).
| Time | Temp. | Humidity | Pressure | Rain* | Wind** | Luminosity | Snow |
|---|---|---|---|---|---|---|---|
| 1787856305 | 26.67° C | 47% | 986.3 hPa | 0 mm | - | - | - |
| 1787855407 | 26.67° C | 47% | 986.3 hPa | 0 mm | - | - | - |
| 1787854505 | 26.67° C | 47% | 986.3 hPa | 0 mm | - | - | - |
| 1787853606 | 26.11° C | 47% | 986.3 hPa | 0 mm | - | - | - |
| 1787852705 | 25.56° C | 60% | 986.5 hPa | 0 mm | - | - | - |
| 1787851805 | 25.56° C | 60% | 986.5 hPa | 0 mm | - | - | - |
| 1787850907 | 25° C | 60% | 986.5 hPa | 0 mm | - | - | - |
| 1787850007 | 24.44° C | 60% | 986.5 hPa | 0 mm | - | - | - |
| 1787849106 | 23.89° C | 65% | 986.5 hPa | 0 mm | - | - | - |
| 1787848207 | 23.89° C | 65% | 986.6 hPa | 0 mm | - | - | - |
| 1787847305 | 23.89° C | 65% | 986.6 hPa | 0 mm | - | - | - |
| 1787846406 | 23.33° C | 65% | 986.6 hPa | 0 mm | - | - | - |
| 1787845506 | 23.33° C | 68% | 986.9 hPa | 0 mm | - | - | - |
| 1787844605 | 22.78° C | 68% | 986.9 hPa | 0 mm | - | - | - |
| 1787843704 | 22.78° C | 68% | 986.9 hPa | 0 mm | - | - | - |
| 1787842807 | 22.22° C | 68% | 986.9 hPa | 0 mm | - | - | - |
| 1787841906 | 22.22° C | 78% | 985.7 hPa | 0 mm | - | - | - |
| 1787841005 | 21.67° C | 78% | 986.2 hPa | 0 mm | - | - | - |
| 1787840105 | 21.11° C | 78% | 986.2 hPa | 0 mm | - | - | - |
| 1787839205 | 21.11° C | 77% | 986.3 hPa | 0 mm | - | - | - |
| 1787838306 | 20.56° C | 87% | 985.5 hPa | 0 mm | - | - | - |
| 1787837405 | 20° C | 87% | 985.5 hPa | 0 mm | - | - | - |
| 1787836505 | 18.89° C | 87% | 985.4 hPa | 0 mm | - | - | - |
| 1787835607 | 18.33° C | 87% | 985.4 hPa | 0 mm | - | - | - |
| 1787834705 | 17.78° C | 96% | 985.1 hPa | 0 mm | - | - | - |
* Rain latest hour (hover to see other rain measurements)
** Current wind speed in m/s (hover to see current wind gust speed)